sensor_id;sensor_type;location;lat;lon;timestamp;P1;durP1;ratioP1;P2;durP2;ratioP2
37379;SDS011;23252;-33.992;18.480;2023-10-08T00:00:25;9.50;;;1.95;;
37379;SDS011;23252;-33.992;18.480;2023-10-08T00:03:11;5.75;;;1.77;;
37379;SDS011;23252;-33.992;18.480;2023-10-08T00:05:39;8.55;;;2.15;;
37379;SDS011;23252;-33.992;18.480;2023-10-08T00:08:07;9.27;;;2.20;;
37379;SDS011;23252;-33.992;18.480;2023-10-08T00:10:40;14.65;;;2.55;;
37379;SDS011;23252;-33.992;18.480;2023-10-08T00:13:07;12.15;;;2.53;;
37379;SDS011;23252;-33.992;18.480;2023-10-08T00:15:35;7.05;;;2.22;;
37379;SDS011;23252;-33.992;18.480;2023-10-08T00:18:03;7.88;;;2.47;;
37379;SDS011;23252;-33.992;18.480;2023-10-08T00:20:37;10.65;;;2.80;;
37379;SDS011;23252;-33.992;18.480;2023-10-08T00:23:20;10.50;;;2.42;;
37379;SDS011;23252;-33.992;18.480;2023-10-08T00:25:51;11.23;;;2.85;;
37379;SDS011;23252;-33.992;18.480;2023-10-08T00:28:20;10.07;;;2.70;;
37379;SDS011;23252;-33.992;18.480;2023-10-08T00:30:47;13.45;;;3.00;;
37379;SDS011;23252;-33.992;18.480;2023-10-08T00:33:15;10.20;;;2.88;;
37379;SDS011;23252;-33.992;18.480;2023-10-08T00:35:42;13.95;;;2.72;;
37379;SDS011;23252;-33.992;18.480;2023-10-08T00:38:09;8.77;;;2.60;;
37379;SDS011;23252;-33.992;18.480;2023-10-08T00:40:46;7.63;;;2.55;;
37379;SDS011;23252;-33.992;18.480;2023-10-08T00:43:31;17.00;;;3.67;;
37379;SDS011;23252;-33.992;18.480;2023-10-08T00:46:03;12.70;;;3.30;;
37379;SDS011;23252;-33.992;18.480;2023-10-08T00:48:42;8.18;;;2.85;;
37379;SDS011;23252;-33.992;18.480;2023-10-08T00:51:10;7.00;;;2.70;;
37379;SDS011;23252;-33.992;18.480;2023-10-08T00:53:51;11.23;;;2.92;;
37379;SDS011;23252;-33.992;18.480;2023-10-08T00:56:31;7.88;;;3.03;;
37379;SDS011;23252;-33.992;18.480;2023-10-08T00:59:18;6.57;;;3.00;;
37379;SDS011;23252;-33.992;18.480;2023-10-08T01:01:49;10.02;;;3.03;;
37379;SDS011;23252;-33.992;18.480;2023-10-08T01:04:18;11.07;;;2.78;;
37379;SDS011;23252;-33.992;18.480;2023-10-08T01:06:53;7.82;;;2.95;;
37379;SDS011;23252;-33.992;18.480;2023-10-08T01:09:24;9.43;;;2.47;;
37379;SDS011;23252;-33.992;18.480;2023-10-08T01:12:07;8.23;;;2.70;;
37379;SDS011;23252;-33.992;18.480;2023-10-08T01:14:59;8.15;;;2.60;;
37379;SDS011;23252;-33.992;18.480;2023-10-08T01:17:49;10.70;;;2.85;;
37379;SDS011;23252;-33.992;18.480;2023-10-08T01:20:34;10.55;;;2.60;;
37379;SDS011;23252;-33.992;18.480;2023-10-08T01:23:07;11.88;;;2.50;;
37379;SDS011;23252;-33.992;18.480;2023-10-08T01:25:54;10.98;;;2.65;;
37379;SDS011;23252;-33.992;18.480;2023-10-08T01:28:35;9.32;;;2.80;;
37379;SDS011;23252;-33.992;18.480;2023-10-08T01:31:02;7.47;;;2.20;;
37379;SDS011;23252;-33.992;18.480;2023-10-08T01:33:29;9.23;;;2.50;;
37379;SDS011;23252;-33.992;18.480;2023-10-08T01:35:57;8.23;;;2.47;;
37379;SDS011;23252;-33.992;18.480;2023-10-08T01:38:30;10.80;;;2.88;;
37379;SDS011;23252;-33.992;18.480;2023-10-08T01:41:00;9.90;;;2.58;;
37379;SDS011;23252;-33.992;18.480;2023-10-08T01:43:45;8.27;;;2.97;;
37379;SDS011;23252;-33.992;18.480;2023-10-08T01:46:11;7.60;;;2.78;;
37379;SDS011;23252;-33.992;18.480;2023-10-08T01:48:40;7.07;;;2.38;;
37379;SDS011;23252;-33.992;18.480;2023-10-08T01:51:10;11.07;;;2.55;;
37379;SDS011;23252;-33.992;18.480;2023-10-08T01:53:43;8.82;;;2.42;;
37379;SDS011;23252;-33.992;18.480;2023-10-08T01:56:10;9.90;;;2.28;;
37379;SDS011;23252;-33.992;18.480;2023-10-08T01:58:37;14.93;;;2.33;;
37379;SDS011;23252;-33.992;18.480;2023-10-08T02:01:04;9.40;;;2.60;;
37379;SDS011;23252;-33.992;18.480;2023-10-08T02:03:37;9.43;;;3.00;;
37379;SDS011;23252;-33.992;18.480;2023-10-08T02:06:03;9.35;;;2.42;;
37379;SDS011;23252;-33.992;18.480;2023-10-08T02:08:34;14.82;;;2.95;;
37379;SDS011;23252;-33.992;18.480;2023-10-08T02:11:01;16.58;;;2.85;;
37379;SDS011;23252;-33.992;18.480;2023-10-08T02:13:31;16.27;;;2.67;;
37379;SDS011;23252;-33.992;18.480;2023-10-08T02:16:00;14.20;;;2.30;;
37379;SDS011;23252;-33.992;18.480;2023-10-08T02:18:27;12.98;;;2.88;;
37379;SDS011;23252;-33.992;18.480;2023-10-08T02:20:56;16.23;;;2.83;;
37379;SDS011;23252;-33.992;18.480;2023-10-08T02:23:24;16.10;;;2.50;;
37379;SDS011;23252;-33.992;18.480;2023-10-08T02:25:51;12.82;;;2.45;;
37379;SDS011;23252;-33.992;18.480;2023-10-08T02:28:17;11.85;;;2.33;;
37379;SDS011;23252;-33.992;18.480;2023-10-08T02:30:46;15.45;;;2.78;;
37379;SDS011;23252;-33.992;18.480;2023-10-08T02:33:12;13.77;;;2.88;;
37379;SDS011;23252;-33.992;18.480;2023-10-08T02:35:40;15.88;;;2.95;;
37379;SDS011;23252;-33.992;18.480;2023-10-08T02:38:11;14.10;;;2.97;;
37379;SDS011;23252;-33.992;18.480;2023-10-08T02:40:41;16.73;;;2.55;;
37379;SDS011;23252;-33.992;18.480;2023-10-08T02:43:14;13.68;;;2.05;;
37379;SDS011;23252;-33.992;18.480;2023-10-08T02:45:41;13.70;;;2.60;;
37379;SDS011;23252;-33.992;18.480;2023-10-08T02:48:14;19.92;;;2.50;;
37379;SDS011;23252;-33.992;18.480;2023-10-08T02:50:43;8.63;;;1.70;;
37379;SDS011;23252;-33.992;18.480;2023-10-08T02:53:10;13.52;;;2.33;;
37379;SDS011;23252;-33.992;18.480;2023-10-08T02:55:38;12.07;;;2.22;;
37379;SDS011;23252;-33.992;18.480;2023-10-08T02:58:09;14.93;;;2.60;;
37379;SDS011;23252;-33.992;18.480;2023-10-08T03:00:45;8.65;;;1.95;;
37379;SDS011;23252;-33.992;18.480;2023-10-08T03:03:13;9.88;;;2.40;;
37379;SDS011;23252;-33.992;18.480;2023-10-08T03:05:49;11.88;;;2.00;;
37379;SDS011;23252;-33.992;18.480;2023-10-08T03:08:22;12.90;;;2.60;;
37379;SDS011;23252;-33.992;18.480;2023-10-08T03:10:49;10.77;;;2.28;;
37379;SDS011;23252;-33.992;18.480;2023-10-08T03:13:28;8.13;;;1.75;;
37379;SDS011;23252;-33.992;18.480;2023-10-08T03:15:55;11.45;;;2.60;;
37379;SDS011;23252;-33.992;18.480;2023-10-08T03:18:27;7.03;;;2.08;;
37379;SDS011;23252;-33.992;18.480;2023-10-08T03:21:08;12.10;;;2.30;;
37379;SDS011;23252;-33.992;18.480;2023-10-08T03:23:57;12.82;;;2.65;;
37379;SDS011;23252;-33.992;18.480;2023-10-08T03:26:24;10.07;;;2.30;;
37379;SDS011;23252;-33.992;18.480;2023-10-08T03:28:56;12.88;;;2.58;;
37379;SDS011;23252;-33.992;18.480;2023-10-08T03:31:23;11.57;;;3.10;;
37379;SDS011;23252;-33.992;18.480;2023-10-08T03:34:08;10.80;;;1.85;;
37379;SDS011;23252;-33.992;18.480;2023-10-08T03:36:40;18.00;;;2.50;;
37379;SDS011;23252;-33.992;18.480;2023-10-08T03:39:11;9.15;;;1.75;;
37379;SDS011;23252;-33.992;18.480;2023-10-08T03:41:42;13.73;;;2.45;;
37379;SDS011;23252;-33.992;18.480;2023-10-08T03:44:21;6.45;;;2.25;;
37379;SDS011;23252;-33.992;18.480;2023-10-08T03:46:49;9.25;;;2.92;;
37379;SDS011;23252;-33.992;18.480;2023-10-08T03:49:18;14.23;;;2.22;;
37379;SDS011;23252;-33.992;18.480;2023-10-08T03:51:47;10.85;;;2.40;;
37379;SDS011;23252;-33.992;18.480;2023-10-08T03:54:17;10.10;;;2.33;;
37379;SDS011;23252;-33.992;18.480;2023-10-08T03:57:00;13.38;;;2.60;;
37379;SDS011;23252;-33.992;18.480;2023-10-08T03:59:38;10.63;;;2.47;;
37379;SDS011;23252;-33.992;18.480;2023-10-08T04:02:08;11.85;;;2.30;;
37379;SDS011;23252;-33.992;18.480;2023-10-08T04:04:41;7.32;;;1.40;;
37379;SDS011;23252;-33.992;18.480;2023-10-08T04:07:19;7.97;;;2.13;;
37379;SDS011;23252;-33.992;18.480;2023-10-08T04:09:50;9.20;;;1.75;;
37379;SDS011;23252;-33.992;18.480;2023-10-08T04:12:30;15.02;;;2.08;;
37379;SDS011;23252;-33.992;18.480;2023-10-08T04:15:01;12.05;;;2.13;;
37379;SDS011;23252;-33.992;18.480;2023-10-08T04:17:33;13.07;;;2.47;;
37379;SDS011;23252;-33.992;18.480;2023-10-08T04:22:55;9.77;;;1.58;;
37379;SDS011;23252;-33.992;18.480;2023-10-08T04:25:28;10.68;;;1.92;;
37379;SDS011;23252;-33.992;18.480;2023-10-08T04:27:56;11.98;;;1.95;;
37379;SDS011;23252;-33.992;18.480;2023-10-08T04:30:27;8.98;;;2.40;;
37379;SDS011;23252;-33.992;18.480;2023-10-08T04:33:02;13.32;;;3.00;;
37379;SDS011;23252;-33.992;18.480;2023-10-08T04:35:33;10.77;;;1.92;;
37379;SDS011;23252;-33.992;18.480;2023-10-08T04:38:19;12.93;;;1.70;;
37379;SDS011;23252;-33.992;18.480;2023-10-08T04:40:48;12.02;;;1.70;;
37379;SDS011;23252;-33.992;18.480;2023-10-08T04:43:19;13.50;;;2.00;;
37379;SDS011;23252;-33.992;18.480;2023-10-08T04:45:59;9.95;;;2.33;;
37379;SDS011;23252;-33.992;18.480;2023-10-08T04:48:52;11.13;;;1.75;;
37379;SDS011;23252;-33.992;18.480;2023-10-08T04:51:19;5.40;;;1.88;;
37379;SDS011;23252;-33.992;18.480;2023-10-08T04:53:48;6.68;;;1.65;;
37379;SDS011;23252;-33.992;18.480;2023-10-08T04:56:15;7.93;;;1.83;;
37379;SDS011;23252;-33.992;18.480;2023-10-08T04:58:44;7.13;;;1.80;;
37379;SDS011;23252;-33.992;18.480;2023-10-08T05:01:13;7.82;;;1.60;;
37379;SDS011;23252;-33.992;18.480;2023-10-08T05:03:47;5.55;;;1.63;;
37379;SDS011;23252;-33.992;18.480;2023-10-08T05:06:25;10.35;;;2.03;;
37379;SDS011;23252;-33.992;18.480;2023-10-08T05:09:16;7.10;;;2.28;;
37379;SDS011;23252;-33.992;18.480;2023-10-08T05:11:48;8.35;;;1.90;;
37379;SDS011;23252;-33.992;18.480;2023-10-08T05:14:23;12.05;;;2.13;;
37379;SDS011;23252;-33.992;18.480;2023-10-08T05:17:00;7.63;;;2.45;;
37379;SDS011;23252;-33.992;18.480;2023-10-08T05:19:50;3.97;;;1.48;;
37379;SDS011;23252;-33.992;18.480;2023-10-08T05:22:33;11.75;;;2.15;;
37379;SDS011;23252;-33.992;18.480;2023-10-08T05:25:11;7.55;;;2.17;;
37379;SDS011;23252;-33.992;18.480;2023-10-08T05:27:42;15.35;;;2.35;;
37379;SDS011;23252;-33.992;18.480;2023-10-08T05:30:16;8.30;;;2.20;;
37379;SDS011;23252;-33.992;18.480;2023-10-08T05:33:18;8.10;;;2.10;;
37379;SDS011;23252;-33.992;18.480;2023-10-08T05:36:03;10.73;;;2.22;;
37379;SDS011;23252;-33.992;18.480;2023-10-08T05:38:36;8.13;;;1.80;;
37379;SDS011;23252;-33.992;18.480;2023-10-08T05:41:03;10.80;;;2.15;;
37379;SDS011;23252;-33.992;18.480;2023-10-08T05:43:34;4.68;;;1.70;;
37379;SDS011;23252;-33.992;18.480;2023-10-08T05:46:07;10.85;;;2.08;;
37379;SDS011;23252;-33.992;18.480;2023-10-08T05:48:51;7.28;;;2.00;;
37379;SDS011;23252;-33.992;18.480;2023-10-08T05:51:32;7.15;;;1.98;;
37379;SDS011;23252;-33.992;18.480;2023-10-08T05:54:24;6.70;;;2.30;;
37379;SDS011;23252;-33.992;18.480;2023-10-08T05:56:58;8.63;;;1.95;;
37379;SDS011;23252;-33.992;18.480;2023-10-08T05:59:41;7.07;;;2.03;;
37379;SDS011;23252;-33.992;18.480;2023-10-08T06:02:24;5.55;;;1.70;;
37379;SDS011;23252;-33.992;18.480;2023-10-08T06:05:02;6.07;;;1.60;;
37379;SDS011;23252;-33.992;18.480;2023-10-08T06:07:42;9.15;;;2.20;;
37379;SDS011;23252;-33.992;18.480;2023-10-08T06:12:52;5.80;;;2.80;;
37379;SDS011;23252;-33.992;18.480;2023-10-08T06:15:27;7.97;;;2.10;;
37379;SDS011;23252;-33.992;18.480;2023-10-08T06:18:12;8.18;;;2.35;;
37379;SDS011;23252;-33.992;18.480;2023-10-08T06:20:42;6.43;;;2.28;;
37379;SDS011;23252;-33.992;18.480;2023-10-08T06:23:13;7.88;;;2.10;;
37379;SDS011;23252;-33.992;18.480;2023-10-08T06:25:47;5.50;;;2.30;;
37379;SDS011;23252;-33.992;18.480;2023-10-08T06:28:27;9.07;;;2.55;;
37379;SDS011;23252;-33.992;18.480;2023-10-08T06:30:54;7.50;;;2.95;;
37379;SDS011;23252;-33.992;18.480;2023-10-08T06:33:24;5.35;;;2.22;;
37379;SDS011;23252;-33.992;18.480;2023-10-08T06:35:59;7.18;;;2.33;;
37379;SDS011;23252;-33.992;18.480;2023-10-08T06:38:44;3.42;;;2.22;;
37379;SDS011;23252;-33.992;18.480;2023-10-08T06:41:20;5.03;;;2.30;;
37379;SDS011;23252;-33.992;18.480;2023-10-08T06:43:54;7.70;;;2.33;;
37379;SDS011;23252;-33.992;18.480;2023-10-08T06:46:39;5.10;;;2.00;;
37379;SDS011;23252;-33.992;18.480;2023-10-08T06:49:07;7.03;;;2.65;;
37379;SDS011;23252;-33.992;18.480;2023-10-08T06:51:40;10.02;;;2.40;;
37379;SDS011;23252;-33.992;18.480;2023-10-08T06:54:10;4.30;;;2.15;;
37379;SDS011;23252;-33.992;18.480;2023-10-08T06:56:42;8.32;;;2.67;;
37379;SDS011;23252;-33.992;18.480;2023-10-08T06:59:15;6.78;;;2.60;;
37379;SDS011;23252;-33.992;18.480;2023-10-08T07:01:42;5.88;;;2.25;;
37379;SDS011;23252;-33.992;18.480;2023-10-08T07:04:13;11.23;;;2.35;;
37379;SDS011;23252;-33.992;18.480;2023-10-08T07:09:08;9.93;;;2.30;;
37379;SDS011;23252;-33.992;18.480;2023-10-08T07:11:57;7.68;;;2.03;;
37379;SDS011;23252;-33.992;18.480;2023-10-08T07:14:30;6.18;;;2.40;;
37379;SDS011;23252;-33.992;18.480;2023-10-08T07:16:59;7.65;;;2.33;;
37379;SDS011;23252;-33.992;18.480;2023-10-08T07:19:27;8.45;;;2.25;;
37379;SDS011;23252;-33.992;18.480;2023-10-08T07:22:05;6.97;;;2.00;;
37379;SDS011;23252;-33.992;18.480;2023-10-08T07:24:53;11.15;;;2.60;;
37379;SDS011;23252;-33.992;18.480;2023-10-08T07:27:20;9.88;;;2.40;;
37379;SDS011;23252;-33.992;18.480;2023-10-08T07:29:49;9.55;;;2.05;;
37379;SDS011;23252;-33.992;18.480;2023-10-08T07:32:20;8.25;;;2.45;;
37379;SDS011;23252;-33.992;18.480;2023-10-08T07:34:47;11.40;;;2.35;;
37379;SDS011;23252;-33.992;18.480;2023-10-08T07:37:22;6.20;;;2.17;;
37379;SDS011;23252;-33.992;18.480;2023-10-08T07:39:51;8.77;;;2.35;;
37379;SDS011;23252;-33.992;18.480;2023-10-08T07:42:20;6.18;;;2.47;;
37379;SDS011;23252;-33.992;18.480;2023-10-08T07:44:47;7.78;;;2.30;;
37379;SDS011;23252;-33.992;18.480;2023-10-08T07:47:16;8.18;;;2.63;;
37379;SDS011;23252;-33.992;18.480;2023-10-08T07:49:46;4.28;;;2.25;;
37379;SDS011;23252;-33.992;18.480;2023-10-08T07:52:13;8.13;;;2.42;;
37379;SDS011;23252;-33.992;18.480;2023-10-08T07:54:41;8.77;;;2.83;;
37379;SDS011;23252;-33.992;18.480;2023-10-08T07:57:07;6.10;;;2.38;;
37379;SDS011;23252;-33.992;18.480;2023-10-08T07:59:41;7.13;;;2.70;;
37379;SDS011;23252;-33.992;18.480;2023-10-08T08:02:14;10.95;;;2.85;;
37379;SDS011;23252;-33.992;18.480;2023-10-08T08:04:42;7.20;;;2.75;;
37379;SDS011;23252;-33.992;18.480;2023-10-08T08:07:11;10.27;;;2.78;;
37379;SDS011;23252;-33.992;18.480;2023-10-08T08:09:46;8.30;;;2.55;;
37379;SDS011;23252;-33.992;18.480;2023-10-08T08:12:17;8.05;;;2.60;;
37379;SDS011;23252;-33.992;18.480;2023-10-08T08:14:47;8.40;;;2.42;;
37379;SDS011;23252;-33.992;18.480;2023-10-08T08:17:14;7.75;;;2.60;;
37379;SDS011;23252;-33.992;18.480;2023-10-08T08:22:21;8.60;;;2.40;;
37379;SDS011;23252;-33.992;18.480;2023-10-08T08:24:52;8.80;;;2.65;;
37379;SDS011;23252;-33.992;18.480;2023-10-08T08:27:30;5.72;;;2.50;;
37379;SDS011;23252;-33.992;18.480;2023-10-08T08:29:58;6.20;;;2.67;;
37379;SDS011;23252;-33.992;18.480;2023-10-08T08:32:45;7.47;;;2.75;;
37379;SDS011;23252;-33.992;18.480;2023-10-08T08:35:14;13.52;;;3.58;;
37379;SDS011;23252;-33.992;18.480;2023-10-08T08:37:45;7.63;;;2.60;;
37379;SDS011;23252;-33.992;18.480;2023-10-08T08:40:18;7.35;;;2.78;;
37379;SDS011;23252;-33.992;18.480;2023-10-08T08:42:49;5.68;;;2.03;;
37379;SDS011;23252;-33.992;18.480;2023-10-08T08:45:24;10.70;;;2.40;;
37379;SDS011;23252;-33.992;18.480;2023-10-08T08:47:52;6.43;;;2.45;;
37379;SDS011;23252;-33.992;18.480;2023-10-08T08:50:21;9.30;;;2.13;;
37379;SDS011;23252;-33.992;18.480;2023-10-08T08:52:48;8.77;;;2.20;;
37379;SDS011;23252;-33.992;18.480;2023-10-08T08:55:15;8.85;;;2.33;;
37379;SDS011;23252;-33.992;18.480;2023-10-08T08:57:42;6.15;;;2.30;;
37379;SDS011;23252;-33.992;18.480;2023-10-08T09:00:14;6.60;;;2.30;;
37379;SDS011;23252;-33.992;18.480;2023-10-08T09:02:42;6.68;;;2.50;;
37379;SDS011;23252;-33.992;18.480;2023-10-08T09:05:12;4.75;;;2.40;;
37379;SDS011;23252;-33.992;18.480;2023-10-08T09:10:31;5.30;;;2.17;;
37379;SDS011;23252;-33.992;18.480;2023-10-08T09:13:20;9.68;;;2.25;;
37379;SDS011;23252;-33.992;18.480;2023-10-08T09:15:49;5.60;;;1.95;;
37379;SDS011;23252;-33.992;18.480;2023-10-08T09:18:17;4.68;;;2.08;;
37379;SDS011;23252;-33.992;18.480;2023-10-08T09:20:46;8.75;;;2.40;;
37379;SDS011;23252;-33.992;18.480;2023-10-08T09:23:16;8.50;;;2.40;;
37379;SDS011;23252;-33.992;18.480;2023-10-08T09:25:44;7.18;;;3.13;;
37379;SDS011;23252;-33.992;18.480;2023-10-08T09:28:15;5.20;;;2.03;;
37379;SDS011;23252;-33.992;18.480;2023-10-08T09:30:43;3.92;;;2.08;;
37379;SDS011;23252;-33.992;18.480;2023-10-08T09:33:14;5.03;;;2.10;;
37379;SDS011;23252;-33.992;18.480;2023-10-08T09:35:43;8.68;;;2.63;;
37379;SDS011;23252;-33.992;18.480;2023-10-08T09:38:11;3.67;;;2.28;;
37379;SDS011;23252;-33.992;18.480;2023-10-08T09:40:39;6.78;;;2.83;;
37379;SDS011;23252;-33.992;18.480;2023-10-08T09:43:08;6.13;;;2.97;;
37379;SDS011;23252;-33.992;18.480;2023-10-08T09:45:37;5.28;;;2.30;;
37379;SDS011;23252;-33.992;18.480;2023-10-08T09:48:10;3.72;;;2.00;;
37379;SDS011;23252;-33.992;18.480;2023-10-08T09:50:38;8.25;;;2.22;;
37379;SDS011;23252;-33.992;18.480;2023-10-08T09:53:13;7.25;;;2.30;;
37379;SDS011;23252;-33.992;18.480;2023-10-08T09:55:49;8.45;;;2.33;;
37379;SDS011;23252;-33.992;18.480;2023-10-08T09:58:25;7.35;;;2.40;;
37379;SDS011;23252;-33.992;18.480;2023-10-08T10:00:54;4.35;;;2.10;;
37379;SDS011;23252;-33.992;18.480;2023-10-08T10:03:23;5.28;;;2.35;;
37379;SDS011;23252;-33.992;18.480;2023-10-08T10:05:51;7.97;;;2.80;;
37379;SDS011;23252;-33.992;18.480;2023-10-08T10:08:23;8.30;;;2.90;;
37379;SDS011;23252;-33.992;18.480;2023-10-08T10:10:59;6.20;;;2.80;;
37379;SDS011;23252;-33.992;18.480;2023-10-08T10:13:33;7.30;;;3.58;;
37379;SDS011;23252;-33.992;18.480;2023-10-08T10:16:05;9.02;;;3.70;;
37379;SDS011;23252;-33.992;18.480;2023-10-08T10:18:34;9.68;;;3.17;;
37379;SDS011;23252;-33.992;18.480;2023-10-08T10:23:38;9.27;;;3.20;;
37379;SDS011;23252;-33.992;18.480;2023-10-08T10:31:41;6.82;;;2.58;;
37379;SDS011;23252;-33.992;18.480;2023-10-08T10:34:13;5.00;;;2.78;;
37379;SDS011;23252;-33.992;18.480;2023-10-08T10:36:43;8.18;;;3.00;;
37379;SDS011;23252;-33.992;18.480;2023-10-08T10:39:18;6.68;;;3.47;;
37379;SDS011;23252;-33.992;18.480;2023-10-08T10:41:59;10.40;;;4.28;;
37379;SDS011;23252;-33.992;18.480;2023-10-08T10:44:27;11.05;;;4.20;;
37379;SDS011;23252;-33.992;18.480;2023-10-08T10:46:55;8.60;;;4.10;;
37379;SDS011;23252;-33.992;18.480;2023-10-08T10:49:45;12.82;;;4.45;;
37379;SDS011;23252;-33.992;18.480;2023-10-08T10:52:40;8.60;;;4.03;;
37379;SDS011;23252;-33.992;18.480;2023-10-08T10:55:19;10.13;;;3.80;;
37379;SDS011;23252;-33.992;18.480;2023-10-08T10:57:50;9.40;;;3.67;;
37379;SDS011;23252;-33.992;18.480;2023-10-08T11:00:36;12.38;;;3.58;;
37379;SDS011;23252;-33.992;18.480;2023-10-08T11:03:07;10.60;;;3.65;;
37379;SDS011;23252;-33.992;18.480;2023-10-08T11:05:53;9.25;;;3.88;;
37379;SDS011;23252;-33.992;18.480;2023-10-08T11:08:25;8.07;;;3.88;;
37379;SDS011;23252;-33.992;18.480;2023-10-08T11:10:59;11.57;;;4.07;;
37379;SDS011;23252;-33.992;18.480;2023-10-08T11:13:32;9.80;;;4.00;;
37379;SDS011;23252;-33.992;18.480;2023-10-08T11:16:05;8.65;;;4.35;;
37379;SDS011;23252;-33.992;18.480;2023-10-08T11:18:34;13.00;;;4.80;;
37379;SDS011;23252;-33.992;18.480;2023-10-08T11:21:08;14.98;;;4.68;;
37379;SDS011;23252;-33.992;18.480;2023-10-08T11:23:42;11.43;;;3.83;;
37379;SDS011;23252;-33.992;18.480;2023-10-08T11:26:25;15.57;;;4.53;;
37379;SDS011;23252;-33.992;18.480;2023-10-08T11:28:59;11.65;;;4.55;;
37379;SDS011;23252;-33.992;18.480;2023-10-08T11:31:28;8.43;;;4.10;;
37379;SDS011;23252;-33.992;18.480;2023-10-08T11:33:59;11.07;;;4.05;;
37379;SDS011;23252;-33.992;18.480;2023-10-08T11:36:33;11.80;;;4.32;;
37379;SDS011;23252;-33.992;18.480;2023-10-08T11:39:14;14.68;;;5.13;;
37379;SDS011;23252;-33.992;18.480;2023-10-08T11:42:00;13.75;;;4.30;;
37379;SDS011;23252;-33.992;18.480;2023-10-08T11:44:48;13.88;;;4.90;;
37379;SDS011;23252;-33.992;18.480;2023-10-08T11:47:18;16.10;;;4.82;;
37379;SDS011;23252;-33.992;18.480;2023-10-08T11:49:48;16.92;;;4.88;;
37379;SDS011;23252;-33.992;18.480;2023-10-08T11:52:34;17.55;;;4.88;;
37379;SDS011;23252;-33.992;18.480;2023-10-08T11:55:01;16.33;;;4.40;;
37379;SDS011;23252;-33.992;18.480;2023-10-08T11:57:31;17.80;;;5.63;;
37379;SDS011;23252;-33.992;18.480;2023-10-08T12:00:01;10.70;;;4.35;;
37379;SDS011;23252;-33.992;18.480;2023-10-08T12:02:45;14.43;;;4.53;;
37379;SDS011;23252;-33.992;18.480;2023-10-08T12:05:13;16.60;;;4.47;;
37379;SDS011;23252;-33.992;18.480;2023-10-08T12:07:46;18.25;;;5.05;;
37379;SDS011;23252;-33.992;18.480;2023-10-08T12:10:13;14.35;;;4.20;;
37379;SDS011;23252;-33.992;18.480;2023-10-08T12:12:48;16.00;;;5.38;;
37379;SDS011;23252;-33.992;18.480;2023-10-08T12:15:19;15.32;;;4.78;;
37379;SDS011;23252;-33.992;18.480;2023-10-08T12:17:59;21.75;;;5.10;;
37379;SDS011;23252;-33.992;18.480;2023-10-08T12:20:50;17.33;;;4.95;;
37379;SDS011;23252;-33.992;18.480;2023-10-08T12:23:19;18.17;;;4.80;;
37379;SDS011;23252;-33.992;18.480;2023-10-08T12:25:52;15.40;;;4.72;;
37379;SDS011;23252;-33.992;18.480;2023-10-08T12:28:22;20.20;;;4.90;;
37379;SDS011;23252;-33.992;18.480;2023-10-08T12:30:49;19.02;;;5.63;;
37379;SDS011;23252;-33.992;18.480;2023-10-08T12:33:24;14.32;;;5.05;;
37379;SDS011;23252;-33.992;18.480;2023-10-08T12:35:51;23.98;;;5.55;;
37379;SDS011;23252;-33.992;18.480;2023-10-08T12:38:22;15.85;;;4.88;;
37379;SDS011;23252;-33.992;18.480;2023-10-08T12:43:18;20.83;;;5.82;;
37379;SDS011;23252;-33.992;18.480;2023-10-08T12:45:53;12.85;;;5.15;;
37379;SDS011;23252;-33.992;18.480;2023-10-08T12:48:22;14.73;;;5.18;;
37379;SDS011;23252;-33.992;18.480;2023-10-08T12:50:53;20.05;;;6.75;;
37379;SDS011;23252;-33.992;18.480;2023-10-08T12:53:24;15.68;;;6.18;;
37379;SDS011;23252;-33.992;18.480;2023-10-08T12:55:59;14.65;;;6.18;;
37379;SDS011;23252;-33.992;18.480;2023-10-08T12:58:31;16.08;;;6.25;;
37379;SDS011;23252;-33.992;18.480;2023-10-08T13:01:09;19.55;;;6.82;;
37379;SDS011;23252;-33.992;18.480;2023-10-08T13:03:40;15.48;;;5.85;;
37379;SDS011;23252;-33.992;18.480;2023-10-08T13:06:08;15.98;;;6.60;;
37379;SDS011;23252;-33.992;18.480;2023-10-08T13:08:47;16.52;;;5.78;;
37379;SDS011;23252;-33.992;18.480;2023-10-08T13:11:18;14.32;;;5.65;;
37379;SDS011;23252;-33.992;18.480;2023-10-08T13:13:49;16.15;;;5.75;;
37379;SDS011;23252;-33.992;18.480;2023-10-08T13:16:17;17.17;;;6.40;;
37379;SDS011;23252;-33.992;18.480;2023-10-08T13:18:49;23.33;;;6.10;;
37379;SDS011;23252;-33.992;18.480;2023-10-08T13:21:16;14.43;;;5.40;;
37379;SDS011;23252;-33.992;18.480;2023-10-08T13:23:44;21.92;;;5.93;;
37379;SDS011;23252;-33.992;18.480;2023-10-08T13:28:42;18.08;;;5.22;;
37379;SDS011;23252;-33.992;18.480;2023-10-08T13:31:10;21.85;;;6.30;;
37379;SDS011;23252;-33.992;18.480;2023-10-08T13:33:37;20.20;;;6.30;;
37379;SDS011;23252;-33.992;18.480;2023-10-08T13:36:09;16.48;;;6.18;;
37379;SDS011;23252;-33.992;18.480;2023-10-08T13:38:39;17.35;;;6.57;;
37379;SDS011;23252;-33.992;18.480;2023-10-08T13:41:07;21.25;;;6.65;;
37379;SDS011;23252;-33.992;18.480;2023-10-08T13:46:18;14.50;;;6.35;;
37379;SDS011;23252;-33.992;18.480;2023-10-08T13:48:53;16.23;;;6.22;;
37379;SDS011;23252;-33.992;18.480;2023-10-08T13:51:28;16.90;;;6.30;;
37379;SDS011;23252;-33.992;18.480;2023-10-08T13:53:56;15.48;;;5.90;;
37379;SDS011;23252;-33.992;18.480;2023-10-08T13:56:26;11.50;;;5.68;;
37379;SDS011;23252;-33.992;18.480;2023-10-08T13:58:59;16.65;;;5.75;;
37379;SDS011;23252;-33.992;18.480;2023-10-08T14:01:31;22.33;;;6.25;;
37379;SDS011;23252;-33.992;18.480;2023-10-08T14:04:04;17.98;;;5.85;;
37379;SDS011;23252;-33.992;18.480;2023-10-08T14:06:31;22.20;;;6.53;;
37379;SDS011;23252;-33.992;18.480;2023-10-08T14:09:00;17.95;;;5.78;;
37379;SDS011;23252;-33.992;18.480;2023-10-08T14:11:32;19.30;;;5.82;;
37379;SDS011;23252;-33.992;18.480;2023-10-08T14:13:59;22.80;;;6.03;;
37379;SDS011;23252;-33.992;18.480;2023-10-08T14:16:39;13.43;;;4.53;;
37379;SDS011;23252;-33.992;18.480;2023-10-08T14:19:12;16.95;;;4.65;;
37379;SDS011;23252;-33.992;18.480;2023-10-08T14:21:40;18.42;;;4.75;;
37379;SDS011;23252;-33.992;18.480;2023-10-08T14:24:20;19.80;;;4.90;;
37379;SDS011;23252;-33.992;18.480;2023-10-08T14:26:49;23.33;;;4.60;;
37379;SDS011;23252;-33.992;18.480;2023-10-08T14:29:22;22.20;;;4.55;;
37379;SDS011;23252;-33.992;18.480;2023-10-08T14:31:52;18.13;;;4.72;;
37379;SDS011;23252;-33.992;18.480;2023-10-08T14:34:22;20.30;;;4.07;;
37379;SDS011;23252;-33.992;18.480;2023-10-08T14:37:08;24.98;;;4.93;;
37379;SDS011;23252;-33.992;18.480;2023-10-08T14:39:53;24.70;;;4.55;;
37379;SDS011;23252;-33.992;18.480;2023-10-08T14:42:38;19.02;;;4.03;;
37379;SDS011;23252;-33.992;18.480;2023-10-08T14:45:23;20.65;;;3.97;;
37379;SDS011;23252;-33.992;18.480;2023-10-08T14:47:57;19.42;;;3.78;;
37379;SDS011;23252;-33.992;18.480;2023-10-08T14:50:24;31.23;;;4.13;;
37379;SDS011;23252;-33.992;18.480;2023-10-08T14:52:58;17.77;;;4.03;;
37379;SDS011;23252;-33.992;18.480;2023-10-08T14:55:31;20.17;;;4.15;;
37379;SDS011;23252;-33.992;18.480;2023-10-08T14:58:01;18.67;;;3.95;;
37379;SDS011;23252;-33.992;18.480;2023-10-08T15:00:37;19.77;;;3.58;;
37379;SDS011;23252;-33.992;18.480;2023-10-08T15:03:07;17.45;;;4.10;;
37379;SDS011;23252;-33.992;18.480;2023-10-08T15:08:04;27.15;;;4.60;;
37379;SDS011;23252;-33.992;18.480;2023-10-08T15:10:40;23.02;;;4.10;;
37379;SDS011;23252;-33.992;18.480;2023-10-08T15:13:07;20.38;;;3.65;;
37379;SDS011;23252;-33.992;18.480;2023-10-08T15:15:35;22.27;;;4.28;;
37379;SDS011;23252;-33.992;18.480;2023-10-08T15:18:03;19.35;;;4.72;;
37379;SDS011;23252;-33.992;18.480;2023-10-08T15:20:39;17.85;;;3.55;;